createdAt,value
2023-03-08T00:00:44.745Z,2.10
2023-03-08T00:03:14.700Z,2.10
2023-03-08T00:05:41.598Z,2.10
2023-03-08T00:08:08.249Z,2.20
2023-03-08T00:10:34.977Z,2.10
2023-03-08T00:13:01.581Z,2.20
2023-03-08T00:15:28.251Z,2.10
2023-03-08T00:17:54.881Z,2.20
2023-03-08T00:20:21.524Z,2.10
2023-03-08T00:22:48.163Z,2.10
2023-03-08T00:25:16.523Z,2.00
2023-03-08T00:27:43.220Z,2.00
2023-03-08T00:30:10.655Z,2.00
2023-03-08T00:32:37.277Z,1.90
2023-03-08T00:35:03.973Z,1.90
2023-03-08T00:37:30.617Z,1.80
2023-03-08T00:39:57.185Z,1.90
2023-03-08T00:42:24.508Z,1.80
2023-03-08T00:44:51.326Z,1.70
2023-03-08T00:47:18.034Z,1.60
2023-03-08T00:49:44.688Z,1.60
2023-03-08T00:52:11.247Z,1.60
2023-03-08T00:54:38.053Z,1.50
2023-03-08T00:57:04.842Z,1.60
2023-03-08T00:59:31.412Z,1.50
2023-03-08T01:01:58.122Z,1.50
2023-03-08T01:04:25.053Z,1.50
2023-03-08T01:06:51.671Z,1.40
2023-03-08T01:09:18.294Z,1.40
2023-03-08T01:11:44.955Z,1.40
2023-03-08T01:14:11.524Z,1.20
2023-03-08T01:16:38.244Z,1.10
2023-03-08T01:19:05.231Z,1.00
2023-03-08T01:21:31.906Z,1.10
2023-03-08T01:23:59.045Z,1.10
2023-03-08T01:26:26.762Z,1.10
2023-03-08T01:28:53.432Z,1.10
2023-03-08T01:31:21.330Z,1.10
2023-03-08T01:33:48.143Z,1.00
2023-03-08T01:36:15.832Z,1.00
2023-03-08T01:38:42.719Z,0.90
2023-03-08T01:41:13.798Z,0.90
2023-03-08T01:43:40.457Z,0.90
2023-03-08T01:46:27.359Z,0.80
2023-03-08T01:49:03.221Z,0.80
2023-03-08T01:51:38.279Z,0.90
2023-03-08T01:54:07.456Z,0.90
2023-03-08T01:56:35.584Z,1.00
2023-03-08T01:59:03.219Z,1.00
2023-03-08T02:01:30.681Z,1.00
2023-03-08T02:03:57.640Z,1.00
2023-03-08T02:06:24.436Z,1.10
2023-03-08T02:08:51.139Z,1.10
2023-03-08T02:11:18.894Z,1.10
2023-03-08T02:13:45.775Z,1.20
2023-03-08T02:16:13.615Z,1.20
2023-03-08T02:18:54.492Z,1.30
2023-03-08T02:21:21.168Z,1.20
2023-03-08T02:23:47.857Z,1.20
2023-03-08T02:26:14.665Z,1.20
2023-03-08T02:28:41.217Z,1.20
2023-03-08T02:31:07.875Z,1.20
2023-03-08T02:33:34.947Z,1.20
2023-03-08T02:36:02.460Z,1.20
2023-03-08T02:38:29.666Z,1.20
2023-03-08T02:40:56.320Z,1.20
2023-03-08T02:43:23.048Z,1.20
2023-03-08T02:45:49.943Z,1.30
2023-03-08T02:48:16.982Z,1.20
2023-03-08T02:50:43.834Z,1.30
2023-03-08T02:53:10.793Z,1.30
2023-03-08T02:55:37.643Z,1.30
2023-03-08T02:58:04.877Z,1.30
2023-03-08T03:00:31.881Z,1.40
2023-03-08T03:02:58.721Z,1.30
2023-03-08T03:05:25.352Z,1.40
2023-03-08T03:07:52.106Z,1.40
2023-03-08T03:10:18.789Z,1.50
2023-03-08T03:12:45.384Z,1.50
2023-03-08T03:15:12.248Z,1.50
2023-03-08T03:17:39.245Z,3.00
2023-03-08T03:20:09.030Z,1.60
2023-03-08T03:22:36.086Z,1.50
2023-03-08T03:25:02.741Z,1.50
2023-03-08T03:27:29.332Z,3.40
2023-03-08T03:29:56.049Z,1.50
2023-03-08T03:32:22.715Z,1.50
2023-03-08T03:34:49.658Z,3.50
2023-03-08T03:37:16.267Z,1.40
2023-03-08T03:39:42.860Z,1.40
2023-03-08T03:42:09.834Z,1.40
2023-03-08T03:44:36.501Z,1.30
2023-03-08T03:47:03.202Z,1.30
2023-03-08T03:49:29.840Z,1.20
2023-03-08T03:51:56.537Z,1.20
2023-03-08T03:54:23.081Z,1.20
2023-03-08T03:56:49.760Z,1.10
2023-03-08T03:59:16.350Z,1.10
2023-03-08T04:01:43.256Z,1.10
2023-03-08T04:04:10.956Z,1.00
2023-03-08T04:06:37.505Z,0.90
2023-03-08T04:09:05.447Z,0.90
2023-03-08T04:11:33.911Z,0.80
2023-03-08T04:14:00.503Z,0.70
2023-03-08T04:16:31.868Z,0.60
2023-03-08T04:18:59.446Z,0.50
2023-03-08T04:21:26.385Z,0.50
2023-03-08T04:23:53.041Z,0.50
2023-03-08T04:26:20.127Z,0.50
2023-03-08T04:28:46.734Z,0.60
2023-03-08T04:31:19.410Z,0.60
2023-03-08T04:33:46.086Z,0.70
2023-03-08T04:36:13.115Z,0.80
2023-03-08T04:38:39.870Z,0.80
2023-03-08T04:41:12.088Z,0.90
2023-03-08T04:43:39.995Z,1.00
2023-03-08T04:46:07.602Z,1.00
2023-03-08T04:48:34.291Z,1.10
2023-03-08T04:51:02.754Z,1.20
2023-03-08T04:53:29.736Z,1.20
2023-03-08T04:55:56.779Z,1.20
2023-03-08T04:58:23.511Z,1.30
2023-03-08T05:00:50.285Z,1.30
2023-03-08T05:03:17.120Z,1.30
2023-03-08T05:05:47.890Z,1.30
2023-03-08T05:08:14.620Z,1.30
2023-03-08T05:10:46.868Z,1.30
2023-03-08T05:13:13.409Z,1.40
2023-03-08T05:15:40.004Z,1.40
2023-03-08T05:18:06.539Z,1.40
2023-03-08T05:20:33.140Z,1.40
2023-03-08T05:22:59.739Z,1.40
2023-03-08T05:25:26.383Z,1.40
2023-03-08T05:27:53.949Z,1.50
2023-03-08T05:30:20.576Z,1.50
2023-03-08T05:32:47.234Z,1.50
2023-03-08T05:35:13.913Z,1.50
2023-03-08T05:37:40.516Z,3.00
2023-03-08T05:40:07.430Z,1.50
2023-03-08T05:42:34.116Z,1.50
2023-03-08T05:45:00.733Z,1.50
2023-03-08T05:47:29.388Z,1.50
2023-03-08T05:49:56.190Z,1.50
2023-03-08T05:52:23.058Z,1.50
2023-03-08T05:54:49.719Z,1.50
2023-03-08T05:57:16.365Z,1.50
2023-03-08T05:59:42.988Z,1.50
2023-03-08T06:02:09.629Z,1.50
2023-03-08T06:04:36.247Z,1.60
2023-03-08T06:07:02.851Z,1.60
2023-03-08T06:09:29.433Z,1.60
2023-03-08T06:11:56.003Z,1.60
2023-03-08T06:14:22.641Z,1.70
2023-03-08T06:16:49.281Z,1.80
2023-03-08T06:19:15.939Z,1.70
2023-03-08T06:21:42.684Z,1.80
2023-03-08T06:24:09.291Z,1.90
2023-03-08T06:26:35.955Z,1.90
2023-03-08T06:29:02.586Z,2.00
2023-03-08T06:31:29.252Z,2.00
2023-03-08T06:33:55.822Z,2.10
2023-03-08T06:36:22.607Z,2.10
2023-03-08T06:38:49.389Z,2.20
2023-03-08T06:41:16.885Z,2.20
2023-03-08T06:43:43.629Z,2.20
2023-03-08T06:46:11.415Z,2.20
2023-03-08T06:48:38.102Z,2.30
2023-03-08T06:51:05.476Z,2.30
2023-03-08T06:53:32.232Z,2.30
2023-03-08T06:55:58.858Z,2.40
2023-03-08T06:58:25.439Z,2.40
2023-03-08T07:00:52.292Z,2.40
2023-03-08T07:03:18.925Z,2.20
2023-03-08T07:05:45.610Z,3.80
2023-03-08T07:08:12.265Z,3.60
2023-03-08T07:10:39.121Z,3.50
2023-03-08T07:13:09.050Z,4.50
2023-03-08T07:15:41.312Z,1.50
2023-03-08T07:18:08.013Z,2.60
2023-03-08T07:20:34.732Z,4.70
2023-03-08T07:23:01.962Z,5.10
2023-03-08T07:25:31.185Z,3.50
2023-03-08T07:27:58.862Z,4.60
2023-03-08T07:30:25.546Z,4.10
2023-03-08T07:32:55.438Z,4.70
2023-03-08T07:35:22.153Z,2.60
2023-03-08T07:37:48.794Z,5.10
2023-03-08T07:40:16.499Z,2.50
2023-03-08T07:42:43.686Z,2.70
2023-03-08T07:45:11.218Z,3.30
2023-03-08T07:47:37.918Z,2.80
2023-03-08T07:50:04.725Z,5.20
2023-03-08T07:52:31.848Z,2.80
2023-03-08T07:54:58.497Z,5.90
2023-03-08T07:57:25.148Z,0.70
2023-03-08T07:59:53.494Z,2.90
2023-03-08T08:02:21.040Z,3.00
2023-03-08T08:04:47.832Z,3.00
2023-03-08T08:07:15.376Z,3.00
2023-03-08T08:09:42.029Z,3.10
2023-03-08T08:12:09.032Z,3.20
2023-03-08T08:14:35.615Z,3.30
2023-03-08T08:17:02.344Z,3.40
2023-03-08T08:19:32.146Z,3.40
2023-03-08T08:21:59.234Z,3.50
2023-03-08T08:24:26.362Z,3.50
2023-03-08T08:26:53.157Z,3.60
2023-03-08T08:29:19.861Z,3.60
2023-03-08T08:31:46.530Z,3.60
2023-03-08T08:34:13.176Z,3.60
2023-03-08T08:36:39.936Z,3.70
2023-03-08T08:39:06.530Z,3.80
2023-03-08T08:41:33.248Z,3.90
2023-03-08T08:44:00.379Z,4.00
2023-03-08T08:46:27.991Z,4.10
2023-03-08T08:48:55.487Z,4.20
2023-03-08T08:51:22.252Z,4.20
2023-03-08T08:53:48.972Z,4.30
2023-03-08T08:56:26.092Z,4.40
2023-03-08T08:58:53.827Z,4.40
2023-03-08T09:01:21.912Z,4.40
2023-03-08T09:03:49.243Z,4.40
2023-03-08T09:06:17.145Z,4.30
2023-03-08T09:08:43.780Z,4.30
2023-03-08T09:11:11.020Z,4.30
2023-03-08T09:13:42.254Z,4.30
2023-03-08T09:16:18.067Z,4.30
2023-03-08T09:18:44.702Z,4.30
2023-03-08T09:21:11.385Z,4.40
2023-03-08T09:23:37.974Z,4.40
2023-03-08T09:26:06.184Z,4.50
2023-03-08T09:28:33.095Z,4.60
2023-03-08T09:31:00.546Z,4.60
2023-03-08T09:33:27.181Z,4.70
2023-03-08T09:35:57.441Z,6.80
2023-03-08T09:38:24.532Z,4.90
2023-03-08T09:40:58.357Z,5.10
2023-03-08T09:43:31.526Z,5.10
2023-03-08T09:45:58.157Z,5.30
2023-03-08T09:48:27.628Z,5.50
2023-03-08T09:50:55.449Z,5.60
2023-03-08T09:53:26.929Z,5.70
2023-03-08T09:55:57.938Z,5.70
2023-03-08T09:58:31.828Z,5.70
2023-03-08T10:01:01.750Z,5.70
2023-03-08T10:03:36.341Z,5.70
2023-03-08T10:06:11.411Z,5.60
2023-03-08T10:08:49.687Z,5.60
2023-03-08T10:11:42.560Z,5.60
2023-03-08T10:14:16.782Z,5.60
2023-03-08T10:16:45.860Z,5.70
2023-03-08T10:19:15.959Z,5.70
2023-03-08T10:21:44.099Z,5.90
2023-03-08T10:24:26.581Z,6.00
2023-03-08T10:26:54.425Z,6.20
2023-03-08T10:29:21.596Z,6.40
2023-03-08T10:31:48.517Z,6.60
2023-03-08T10:34:16.463Z,6.90
2023-03-08T10:36:47.224Z,7.20
2023-03-08T10:39:13.787Z,7.40
2023-03-08T10:41:45.568Z,7.70
2023-03-08T10:44:30.966Z,7.90
2023-03-08T10:46:57.706Z,8.00
2023-03-08T10:49:27.860Z,8.10
2023-03-08T10:51:56.574Z,8.20
2023-03-08T10:54:23.316Z,8.30
2023-03-08T10:56:55.235Z,8.50
2023-03-08T10:59:32.999Z,8.60
2023-03-08T11:02:14.860Z,8.70
2023-03-08T11:04:52.376Z,8.80
2023-03-08T11:07:23.535Z,8.90
2023-03-08T11:09:50.211Z,9.10
2023-03-08T11:12:24.408Z,9.30
2023-03-08T11:14:51.707Z,9.40
2023-03-08T11:17:31.624Z,9.60
2023-03-08T11:20:06.364Z,9.80
2023-03-08T11:22:39.038Z,10.00
2023-03-08T11:25:08.948Z,10.10
2023-03-08T11:27:44.717Z,10.10
2023-03-08T11:30:23.579Z,10.10
2023-03-08T11:33:06.555Z,10.20
2023-03-08T11:35:48.621Z,10.30
2023-03-08T11:38:20.043Z,10.40
2023-03-08T11:40:55.542Z,10.50
2023-03-08T11:43:22.130Z,10.40
2023-03-08T11:45:51.776Z,10.40
2023-03-08T11:48:37.397Z,10.40
2023-03-08T11:51:12.670Z,10.40
2023-03-08T11:53:45.951Z,10.30
2023-03-08T11:56:31.633Z,10.30
2023-03-08T11:58:58.233Z,10.20
2023-03-08T12:01:31.521Z,10.20
2023-03-08T12:04:06.670Z,10.30
2023-03-08T12:06:40.065Z,10.30
2023-03-08T12:09:25.475Z,10.30
2023-03-08T12:12:03.504Z,10.30
2023-03-08T12:14:34.840Z,10.40
2023-03-08T12:17:09.791Z,10.60
2023-03-08T12:19:44.050Z,10.70
2023-03-08T12:22:10.600Z,10.90
2023-03-08T12:24:37.113Z,11.10
2023-03-08T12:27:13.506Z,11.10
2023-03-08T12:29:42.884Z,11.10
2023-03-08T12:32:10.812Z,11.20
2023-03-08T12:34:37.485Z,11.30
2023-03-08T12:37:04.312Z,11.30
2023-03-08T12:39:32.252Z,11.30
2023-03-08T12:42:11.182Z,11.30
2023-03-08T12:44:39.088Z,11.20
2023-03-08T12:47:11.644Z,11.20
2023-03-08T12:49:39.782Z,11.20
2023-03-08T12:52:27.302Z,11.30
2023-03-08T12:55:00.256Z,11.30
2023-03-08T12:57:32.072Z,11.20
2023-03-08T13:00:00.476Z,11.20
2023-03-08T13:02:31.663Z,11.30
2023-03-08T13:05:02.221Z,11.30
2023-03-08T13:07:33.859Z,11.30
2023-03-08T13:10:17.106Z,11.30
2023-03-08T13:12:54.590Z,11.30
2023-03-08T13:15:23.703Z,11.10
2023-03-08T13:18:04.026Z,11.00
2023-03-08T13:20:42.056Z,10.90
2023-03-08T13:23:15.063Z,10.90
2023-03-08T13:25:43.957Z,10.90
2023-03-08T13:28:18.156Z,11.10
2023-03-08T13:30:55.703Z,10.90
2023-03-08T13:33:24.583Z,10.90
2023-03-08T13:35:58.691Z,11.00
2023-03-08T13:38:26.581Z,10.90
2023-03-08T13:40:54.352Z,11.10
2023-03-08T13:43:23.264Z,11.10
2023-03-08T13:45:51.366Z,11.20
2023-03-08T13:48:19.294Z,11.40
2023-03-08T13:50:47.355Z,11.60
2023-03-08T13:53:16.225Z,11.60
2023-03-08T13:55:44.316Z,14.60
2023-03-08T13:58:26.493Z,12.80
2023-03-08T14:01:02.146Z,11.50
2023-03-08T14:03:30.423Z,11.50
2023-03-08T14:05:57.654Z,12.10
2023-03-08T14:08:25.912Z,13.20
2023-03-08T14:10:55.385Z,11.30
2023-03-08T14:13:25.722Z,11.20
2023-03-08T14:15:53.678Z,11.30
2023-03-08T14:18:24.795Z,11.40
2023-03-08T14:21:13.128Z,11.50
2023-03-08T14:23:40.993Z,11.50
2023-03-08T14:26:23.181Z,11.50
2023-03-08T14:28:49.934Z,11.50
2023-03-08T14:31:23.442Z,12.30
2023-03-08T14:34:00.310Z,11.50
2023-03-08T14:36:28.383Z,11.50
2023-03-08T14:38:55.294Z,11.70
2023-03-08T14:41:35.600Z,11.20
2023-03-08T14:44:03.560Z,11.00
2023-03-08T14:46:30.543Z,12.00
2023-03-08T14:49:03.662Z,10.90
2023-03-08T14:51:41.063Z,10.90
2023-03-08T14:54:20.460Z,10.80
2023-03-08T14:56:47.848Z,10.80
2023-03-08T14:59:26.803Z,10.80
2023-03-08T15:01:54.900Z,10.70
2023-03-08T15:04:22.785Z,12.60
2023-03-08T15:06:50.232Z,10.70
2023-03-08T15:09:18.198Z,10.70
2023-03-08T15:11:46.071Z,10.70
2023-03-08T15:14:12.960Z,10.60
2023-03-08T15:16:39.859Z,10.60
2023-03-08T15:19:06.537Z,12.40
2023-03-08T15:21:33.346Z,10.50
2023-03-08T15:24:00.740Z,10.50
2023-03-08T15:26:28.810Z,11.10
2023-03-08T15:28:55.454Z,10.50
2023-03-08T15:31:22.193Z,11.40
2023-03-08T15:33:48.904Z,12.80
2023-03-08T15:36:16.936Z,10.60
2023-03-08T15:38:43.571Z,10.60
2023-03-08T15:41:10.887Z,13.00
2023-03-08T15:43:37.508Z,12.10
2023-03-08T15:46:04.128Z,10.70
2023-03-08T15:48:30.727Z,10.70
2023-03-08T15:50:57.782Z,10.70
2023-03-08T15:53:34.947Z,10.70
2023-03-08T15:56:02.586Z,12.10
2023-03-08T15:58:29.200Z,10.70
2023-03-08T16:00:55.811Z,10.80
2023-03-08T16:03:26.092Z,10.70
2023-03-08T16:05:53.132Z,12.30
2023-03-08T16:08:21.399Z,13.10
2023-03-08T16:10:47.994Z,11.90
2023-03-08T16:13:14.570Z,10.70
2023-03-08T16:15:44.171Z,10.60
2023-03-08T16:18:10.866Z,10.50
2023-03-08T16:20:39.626Z,10.50
2023-03-08T16:23:06.315Z,10.40
2023-03-08T16:25:32.882Z,10.20
2023-03-08T16:27:59.484Z,10.20
2023-03-08T16:30:26.611Z,10.00
2023-03-08T16:32:53.907Z,9.90
2023-03-08T16:35:20.910Z,9.90
2023-03-08T16:37:47.651Z,9.70
2023-03-08T16:40:15.472Z,10.70
2023-03-08T16:42:42.156Z,9.70
2023-03-08T16:45:08.974Z,9.60
2023-03-08T16:47:35.582Z,9.50
2023-03-08T16:50:02.738Z,9.50
2023-03-08T16:52:29.343Z,9.50
2023-03-08T16:54:56.442Z,9.50
2023-03-08T16:57:23.058Z,9.50
2023-03-08T16:59:49.671Z,10.60
2023-03-08T17:02:17.542Z,9.40
2023-03-08T17:04:44.216Z,9.40
2023-03-08T17:07:10.885Z,9.40
2023-03-08T17:09:38.330Z,9.40
2023-03-08T17:12:05.215Z,9.50
2023-03-08T17:14:34.609Z,9.40
2023-03-08T17:17:01.579Z,9.60
2023-03-08T17:19:28.174Z,9.60
2023-03-08T17:21:54.845Z,9.50
2023-03-08T17:24:21.754Z,9.60
2023-03-08T17:26:50.677Z,9.60
2023-03-08T17:29:17.340Z,9.60
2023-03-08T17:31:44.099Z,9.60
2023-03-08T17:34:10.930Z,9.50
2023-03-08T17:36:37.989Z,10.10
2023-03-08T17:39:04.700Z,9.80
2023-03-08T17:41:32.519Z,9.50
2023-03-08T17:43:59.143Z,9.40
2023-03-08T17:46:27.188Z,11.10
2023-03-08T17:48:54.876Z,9.40
2023-03-08T17:51:25.876Z,9.40
2023-03-08T17:53:53.167Z,9.30
2023-03-08T17:56:25.142Z,9.40
2023-03-08T17:58:52.387Z,9.30
2023-03-08T18:01:20.553Z,9.30
2023-03-08T18:03:47.540Z,10.70
2023-03-08T18:06:17.796Z,9.40
2023-03-08T18:08:44.392Z,9.40
2023-03-08T18:11:10.960Z,10.40
2023-03-08T18:13:39.739Z,12.10
2023-03-08T18:16:07.339Z,9.30
2023-03-08T18:18:33.989Z,9.50
2023-03-08T18:21:12.730Z,9.20
2023-03-08T18:23:41.771Z,11.20
2023-03-08T18:26:10.149Z,9.20
2023-03-08T18:28:36.787Z,9.20
2023-03-08T18:31:10.747Z,10.70
2023-03-08T18:33:37.390Z,9.20
2023-03-08T18:36:04.573Z,9.20
2023-03-08T18:38:31.149Z,9.10
2023-03-08T18:40:57.869Z,9.00
2023-03-08T18:43:25.353Z,9.00
2023-03-08T18:45:52.695Z,8.90
2023-03-08T18:48:19.676Z,8.90
2023-03-08T18:50:46.559Z,8.90
2023-03-08T18:53:13.249Z,8.90
2023-03-08T18:55:41.244Z,8.90
2023-03-08T18:58:07.884Z,9.00
2023-03-08T19:00:34.523Z,9.00
2023-03-08T19:03:01.142Z,8.90
2023-03-08T19:05:27.722Z,8.90
2023-03-08T19:07:54.319Z,8.90
2023-03-08T19:10:20.985Z,8.80
2023-03-08T19:12:47.558Z,8.80
2023-03-08T19:15:14.161Z,8.80
2023-03-08T19:17:40.813Z,8.70
2023-03-08T19:20:08.449Z,8.70
2023-03-08T19:22:35.134Z,8.60
2023-03-08T19:25:01.840Z,8.70
2023-03-08T19:27:28.997Z,11.20
2023-03-08T19:29:55.646Z,11.30
2023-03-08T19:32:22.265Z,8.60
2023-03-08T19:34:49.118Z,8.70
2023-03-08T19:37:15.937Z,8.70
2023-03-08T19:39:43.618Z,8.70
2023-03-08T19:42:14.802Z,8.70
2023-03-08T19:44:42.090Z,8.80
2023-03-08T19:47:09.092Z,9.60
2023-03-08T19:49:36.359Z,8.90
2023-03-08T19:52:04.412Z,8.90
2023-03-08T19:54:31.645Z,9.00
2023-03-08T19:56:58.473Z,9.00
2023-03-08T19:59:25.324Z,9.00
2023-03-08T20:01:52.664Z,9.00
2023-03-08T20:04:19.282Z,9.00
2023-03-08T20:06:47.184Z,10.60
2023-03-08T20:09:18.285Z,9.10
2023-03-08T20:11:44.900Z,9.10
2023-03-08T20:14:11.481Z,9.10
2023-03-08T20:16:38.455Z,9.10
2023-03-08T20:19:05.279Z,11.60
2023-03-08T20:21:32.158Z,9.20
2023-03-08T20:23:59.577Z,9.20
2023-03-08T20:26:28.645Z,9.20
2023-03-08T20:28:56.513Z,9.20
2023-03-08T20:31:23.873Z,11.00
2023-03-08T20:33:50.717Z,9.30
2023-03-08T20:36:17.354Z,9.30
2023-03-08T20:38:44.358Z,9.40
2023-03-08T20:41:13.214Z,11.00
2023-03-08T20:43:39.927Z,9.40
2023-03-08T20:46:09.121Z,9.50
2023-03-08T20:48:37.124Z,9.50
2023-03-08T20:51:04.769Z,9.50
2023-03-08T20:53:31.973Z,9.40
2023-03-08T20:55:58.785Z,9.50
2023-03-08T20:58:25.708Z,9.50
2023-03-08T21:00:52.788Z,9.40
2023-03-08T21:03:19.501Z,9.40
2023-03-08T21:05:46.182Z,7.90
2023-03-08T21:08:12.789Z,9.40
2023-03-08T21:10:39.768Z,9.40
2023-03-08T21:13:06.667Z,9.40
2023-03-08T21:15:34.045Z,9.40
2023-03-08T21:18:00.893Z,9.30
2023-03-08T21:20:27.491Z,9.40
2023-03-08T21:22:54.050Z,9.40
2023-03-08T21:25:20.604Z,10.00
2023-03-08T21:27:47.218Z,9.40
2023-03-08T21:30:13.810Z,9.30
2023-03-08T21:32:40.561Z,9.30
2023-03-08T21:35:07.519Z,9.30
2023-03-08T21:37:34.477Z,9.30
2023-03-08T21:40:01.095Z,9.40
2023-03-08T21:42:27.722Z,9.30
2023-03-08T21:44:54.290Z,9.30
2023-03-08T21:47:20.883Z,11.30
2023-03-08T21:49:47.453Z,9.30
2023-03-08T21:52:14.066Z,9.20
2023-03-08T21:54:40.673Z,10.20
2023-03-08T21:57:07.294Z,10.80
2023-03-08T21:59:34.011Z,9.20
2023-03-08T22:02:00.688Z,9.20
2023-03-08T22:04:27.758Z,9.20
2023-03-08T22:06:55.612Z,9.20
2023-03-08T22:09:22.534Z,11.10
2023-03-08T22:11:49.132Z,9.20
2023-03-08T22:14:15.734Z,12.10
2023-03-08T22:16:42.442Z,11.60
2023-03-08T22:19:09.767Z,9.30
2023-03-08T22:21:36.409Z,9.20
2023-03-08T22:24:03.002Z,9.20
2023-03-08T22:26:30.137Z,9.20
2023-03-08T22:28:56.730Z,9.30
2023-03-08T22:31:25.213Z,9.30
2023-03-08T22:33:51.913Z,9.30
2023-03-08T22:36:19.196Z,9.30
2023-03-08T22:38:45.840Z,9.40
2023-03-08T22:41:23.165Z,9.40
2023-03-08T22:43:50.227Z,10.80
2023-03-08T22:46:18.271Z,12.70
2023-03-08T22:48:45.507Z,12.90
2023-03-08T22:51:12.511Z,12.50
2023-03-08T22:53:39.516Z,12.20
2023-03-08T22:56:06.653Z,9.50
2023-03-08T22:58:33.338Z,7.80
2023-03-08T23:00:59.943Z,9.40
2023-03-08T23:03:26.656Z,9.30
2023-03-08T23:05:53.241Z,10.80
2023-03-08T23:08:19.871Z,9.20
2023-03-08T23:10:46.446Z,8.10
2023-03-08T23:13:21.668Z,9.10
2023-03-08T23:15:58.032Z,11.80
2023-03-08T23:18:24.708Z,9.00
2023-03-08T23:20:51.469Z,9.00
2023-03-08T23:23:18.140Z,11.20
2023-03-08T23:25:44.844Z,9.10
2023-03-08T23:28:11.562Z,9.10
2023-03-08T23:30:40.860Z,9.00
2023-03-08T23:33:07.440Z,9.00
2023-03-08T23:35:34.081Z,9.00
2023-03-08T23:38:01.627Z,8.90
2023-03-08T23:40:28.234Z,8.90
2023-03-08T23:42:54.788Z,9.00
2023-03-08T23:45:21.435Z,9.00
2023-03-08T23:47:48.097Z,9.00
2023-03-08T23:50:14.738Z,9.00
2023-03-08T23:52:41.382Z,9.00
2023-03-08T23:55:08.113Z,9.00
2023-03-08T23:57:34.659Z,9.00
